Guildhall, Vermont
Current Conditions -  °F | °C
As of 10:52 PM on Tuesday 25 Nov 2014 (Local Time) from KHIE Reporting Station
Overcast Overcast  
Wind Chill: 28°   Ceiling: 6000
Heat Index: 33°   Visibility: 10mi
Dew Point: 26°   Wind: 6mph
Humidity: 75%   Direction: 220°SW
Pressure: 30.03"   Gusts: NA
Location:  44.57°N, 71.57°W
Report Text: KHIE 260352Z AUTO 22005KT 10SM OVC060 01/M03 A3003 RMK AO2 SLP180 T00061033
Loading
Personal Weather Stations






























Interactive Weather Map New forecast layout! Learn more

10-Day Weather Forecast

Advertisements
Track Severe Weather on mobile